sensor_id;sensor_type;location;lat;lon;timestamp;pressure;altitude;pressure_sealevel;temperature;humidity
79370;BME280;68835;53.096;17.932;2023-04-25T00:01:59;99586.37;;;10.52;83.08
79370;BME280;68835;53.096;17.932;2023-04-25T00:04:29;99588.64;;;10.52;83.01
79370;BME280;68835;53.096;17.932;2023-04-25T00:06:56;99588.67;;;10.50;83.10
79370;BME280;68835;53.096;17.932;2023-04-25T00:09:25;99586.58;;;10.48;82.94
79370;BME280;68835;53.096;17.932;2023-04-25T00:11:52;99584.86;;;10.45;82.72
79370;BME280;68835;53.096;17.932;2023-04-25T00:14:19;99587.16;;;10.43;82.76
79370;BME280;68835;53.096;17.932;2023-04-25T00:16:47;99587.87;;;10.41;82.10
79370;BME280;68835;53.096;17.932;2023-04-25T00:19:15;99586.33;;;10.38;81.83
79370;BME280;68835;53.096;17.932;2023-04-25T00:21:42;99586.70;;;10.35;81.78
79370;BME280;68835;53.096;17.932;2023-04-25T00:24:09;99588.48;;;10.29;81.66
79370;BME280;68835;53.096;17.932;2023-04-25T00:26:36;99594.45;;;10.23;81.78
79370;BME280;68835;53.096;17.932;2023-04-25T00:29:03;99588.54;;;10.19;81.09
79370;BME280;68835;53.096;17.932;2023-04-25T00:31:31;99594.30;;;10.18;81.30
79370;BME280;68835;53.096;17.932;2023-04-25T00:33:58;99593.29;;;10.15;81.21
79370;BME280;68835;53.096;17.932;2023-04-25T00:36:26;99598.53;;;10.11;81.12
79370;BME280;68835;53.096;17.932;2023-04-25T00:38:54;99598.41;;;10.04;81.07
79370;BME280;68835;53.096;17.932;2023-04-25T00:41:22;99600.02;;;9.98;81.11
79370;BME280;68835;53.096;17.932;2023-04-25T00:43:49;99603.38;;;9.92;81.19
79370;BME280;68835;53.096;17.932;2023-04-25T00:46:18;99610.39;;;9.87;81.27
79370;BME280;68835;53.096;17.932;2023-04-25T00:48:45;99608.32;;;9.84;81.27
79370;BME280;68835;53.096;17.932;2023-04-25T00:51:30;99611.98;;;9.82;80.99
79370;BME280;68835;53.096;17.932;2023-04-25T00:54:00;99612.36;;;9.76;80.89
79370;BME280;68835;53.096;17.932;2023-04-25T00:56:28;99612.05;;;9.71;81.04
79370;BME280;68835;53.096;17.932;2023-04-25T00:58:56;99607.88;;;9.66;81.14
79370;BME280;68835;53.096;17.932;2023-04-25T01:01:24;99609.45;;;9.66;80.69
79370;BME280;68835;53.096;17.932;2023-04-25T01:03:53;99612.95;;;9.63;80.72
79370;BME280;68835;53.096;17.932;2023-04-25T01:06:20;99613.14;;;9.61;80.76
79370;BME280;68835;53.096;17.932;2023-04-25T01:08:49;99612.98;;;9.55;80.72
79370;BME280;68835;53.096;17.932;2023-04-25T01:11:16;99612.66;;;9.49;80.98
79370;BME280;68835;53.096;17.932;2023-04-25T01:13:43;99610.23;;;9.44;81.03
79370;BME280;68835;53.096;17.932;2023-04-25T01:16:11;99612.00;;;9.43;81.16
79370;BME280;68835;53.096;17.932;2023-04-25T01:18:39;99613.21;;;9.41;81.00
79370;BME280;68835;53.096;17.932;2023-04-25T01:21:11;99613.23;;;9.39;81.00
79370;BME280;68835;53.096;17.932;2023-04-25T01:23:41;99617.09;;;9.34;80.89
79370;BME280;68835;53.096;17.932;2023-04-25T01:26:09;99617.97;;;9.29;81.00
79370;BME280;68835;53.096;17.932;2023-04-25T01:28:38;99615.55;;;9.23;80.95
79370;BME280;68835;53.096;17.932;2023-04-25T01:31:09;99612.94;;;9.21;81.16
79370;BME280;68835;53.096;17.932;2023-04-25T01:33:38;99615.55;;;9.17;80.96
79370;BME280;68835;53.096;17.932;2023-04-25T01:36:06;99615.73;;;9.15;80.73
79370;BME280;68835;53.096;17.932;2023-04-25T01:38:35;99619.77;;;9.10;80.49
79370;BME280;68835;53.096;17.932;2023-04-25T01:41:02;99616.64;;;9.04;80.51
79370;BME280;68835;53.096;17.932;2023-04-25T01:43:30;99626.42;;;8.98;80.63
79370;BME280;68835;53.096;17.932;2023-04-25T01:45:57;99626.25;;;8.96;80.62
79370;BME280;68835;53.096;17.932;2023-04-25T01:48:24;99625.20;;;8.93;80.81
79370;BME280;68835;53.096;17.932;2023-04-25T01:50:51;99628.69;;;8.92;80.38
79370;BME280;68835;53.096;17.932;2023-04-25T01:53:19;99625.91;;;8.87;80.64
79370;BME280;68835;53.096;17.932;2023-04-25T01:55:46;99632.36;;;8.85;80.55
79370;BME280;68835;53.096;17.932;2023-04-25T01:58:16;99632.71;;;8.81;80.48
79370;BME280;68835;53.096;17.932;2023-04-25T02:01:06;99638.48;;;8.79;80.78
79370;BME280;68835;53.096;17.932;2023-04-25T02:03:38;99637.95;;;8.79;80.48
79370;BME280;68835;53.096;17.932;2023-04-25T02:06:09;99642.67;;;8.80;80.35
79370;BME280;68835;53.096;17.932;2023-04-25T02:08:39;99643.53;;;8.80;80.45
79370;BME280;68835;53.096;17.932;2023-04-25T02:11:06;99642.48;;;8.74;80.37
79370;BME280;68835;53.096;17.932;2023-04-25T02:13:41;99640.05;;;8.66;80.12
79370;BME280;68835;53.096;17.932;2023-04-25T02:16:30;99642.31;;;8.59;80.30
79370;BME280;68835;53.096;17.932;2023-04-25T02:18:58;99643.52;;;8.57;80.13
79370;BME280;68835;53.096;17.932;2023-04-25T02:21:28;99647.71;;;8.54;79.55
79370;BME280;68835;53.096;17.932;2023-04-25T02:23:56;99646.14;;;8.51;79.85
79370;BME280;68835;53.096;17.932;2023-04-25T02:26:23;99644.05;;;8.45;79.71
79370;BME280;68835;53.096;17.932;2023-04-25T02:28:51;99643.69;;;8.38;79.63
79370;BME280;68835;53.096;17.932;2023-04-25T02:31:20;99642.25;;;8.33;79.85
79370;BME280;68835;53.096;17.932;2023-04-25T02:33:47;99645.91;;;8.30;80.03
79370;BME280;68835;53.096;17.932;2023-04-25T02:36:14;99646.62;;;8.29;79.97
79370;BME280;68835;53.096;17.932;2023-04-25T02:38:42;99652.01;;;8.26;79.44
79370;BME280;68835;53.096;17.932;2023-04-25T02:41:09;99649.73;;;8.21;79.67
79370;BME280;68835;53.096;17.932;2023-04-25T02:43:36;99657.03;;;8.14;79.68
79370;BME280;68835;53.096;17.932;2023-04-25T02:46:03;99657.90;;;8.08;79.79
79370;BME280;68835;53.096;17.932;2023-04-25T02:48:30;99659.28;;;8.05;79.48
79370;BME280;68835;53.096;17.932;2023-04-25T02:50:58;99655.08;;;8.01;79.46
79370;BME280;68835;53.096;17.932;2023-04-25T02:53:25;99654.89;;;7.98;79.58
79370;BME280;68835;53.096;17.932;2023-04-25T02:55:52;99659.77;;;7.94;79.38
79370;BME280;68835;53.096;17.932;2023-04-25T02:58:20;99662.17;;;7.88;79.48
79370;BME280;68835;53.096;17.932;2023-04-25T03:00:49;99659.21;;;7.83;79.11
79370;BME280;68835;53.096;17.932;2023-04-25T03:03:17;99661.81;;;7.81;79.16
79370;BME280;68835;53.096;17.932;2023-04-25T03:05:44;99664.23;;;7.76;78.68
79370;BME280;68835;53.096;17.932;2023-04-25T03:08:14;99666.48;;;7.69;78.78
79370;BME280;68835;53.096;17.932;2023-04-25T03:10:45;99663.29;;;7.60;79.08
79370;BME280;68835;53.096;17.932;2023-04-25T03:13:13;99657.52;;;7.53;79.28
79370;BME280;68835;53.096;17.932;2023-04-25T03:15:41;99660.82;;;7.51;78.73
79370;BME280;68835;53.096;17.932;2023-04-25T03:18:09;99660.10;;;7.49;78.99
79370;BME280;68835;53.096;17.932;2023-04-25T03:20:36;99660.60;;;7.45;78.74
79370;BME280;68835;53.096;17.932;2023-04-25T03:23:04;99658.66;;;7.40;78.85
79370;BME280;68835;53.096;17.932;2023-04-25T03:25:31;99656.38;;;7.34;78.84
79370;BME280;68835;53.096;17.932;2023-04-25T03:27:59;99656.17;;;7.29;79.25
79370;BME280;68835;53.096;17.932;2023-04-25T03:30:26;99657.36;;;7.28;79.14
79370;BME280;68835;53.096;17.932;2023-04-25T03:32:54;99658.76;;;7.28;79.02
79370;BME280;68835;53.096;17.932;2023-04-25T03:35:21;99660.33;;;7.26;78.86
79370;BME280;68835;53.096;17.932;2023-04-25T03:37:52;99667.45;;;7.22;79.13
79370;BME280;68835;53.096;17.932;2023-04-25T03:40:23;99667.05;;;7.16;79.23
79370;BME280;68835;53.096;17.932;2023-04-25T03:43:08;99664.23;;;7.10;79.11
79370;BME280;68835;53.096;17.932;2023-04-25T03:45:36;99668.06;;;7.11;79.04
79370;BME280;68835;53.096;17.932;2023-04-25T03:48:03;99671.38;;;7.12;78.84
79370;BME280;68835;53.096;17.932;2023-04-25T03:50:32;99675.70;;;7.09;79.08
79370;BME280;68835;53.096;17.932;2023-04-25T03:52:59;99676.37;;;7.05;79.12
79370;BME280;68835;53.096;17.932;2023-04-25T03:55:28;99680.88;;;7.02;79.10
79370;BME280;68835;53.096;17.932;2023-04-25T03:57:55;99685.89;;;7.00;79.16
79370;BME280;68835;53.096;17.932;2023-04-25T04:00:25;99687.45;;;7.00;79.08
79370;BME280;68835;53.096;17.932;2023-04-25T04:02:52;99685.71;;;7.00;79.12
79370;BME280;68835;53.096;17.932;2023-04-25T04:05:20;99686.23;;;6.99;79.18
79370;BME280;68835;53.096;17.932;2023-04-25T04:07:53;99688.14;;;6.97;79.05
79370;BME280;68835;53.096;17.932;2023-04-25T04:10:20;99693.00;;;6.97;78.97
79370;BME280;68835;53.096;17.932;2023-04-25T04:12:47;99694.39;;;6.95;78.88
79370;BME280;68835;53.096;17.932;2023-04-25T04:15:15;99696.67;;;6.99;78.76
79370;BME280;68835;53.096;17.932;2023-04-25T04:17:44;99703.14;;;7.02;78.82
79370;BME280;68835;53.096;17.932;2023-04-25T04:20:12;99706.80;;;7.04;78.49
79370;BME280;68835;53.096;17.932;2023-04-25T04:22:41;99710.30;;;7.06;78.56
79370;BME280;68835;53.096;17.932;2023-04-25T04:25:11;99706.83;;;7.06;78.49
79370;BME280;68835;53.096;17.932;2023-04-25T04:28:11;99707.68;;;7.06;78.51
79370;BME280;68835;53.096;17.932;2023-04-25T04:30:48;99710.52;;;7.13;78.43
79370;BME280;68835;53.096;17.932;2023-04-25T04:33:18;99716.61;;;7.15;78.17
79370;BME280;68835;53.096;17.932;2023-04-25T04:35:47;99720.27;;;7.15;78.07
79370;BME280;68835;53.096;17.932;2023-04-25T04:38:14;99720.27;;;7.12;77.60
79370;BME280;68835;53.096;17.932;2023-04-25T04:40:45;99720.92;;;7.07;78.05
79370;BME280;68835;53.096;17.932;2023-04-25T04:43:40;99722.14;;;7.06;77.96
79370;BME280;68835;53.096;17.932;2023-04-25T04:46:23;99723.36;;;7.08;77.82
79370;BME280;68835;53.096;17.932;2023-04-25T04:49:10;99718.99;;;7.08;78.03
79370;BME280;68835;53.096;17.932;2023-04-25T04:52:01;99722.12;;;7.06;77.84
79370;BME280;68835;53.096;17.932;2023-04-25T04:54:48;99719.34;;;7.05;77.71
79370;BME280;68835;53.096;17.932;2023-04-25T04:57:23;99725.79;;;7.07;77.85
79370;BME280;68835;53.096;17.932;2023-04-25T04:59:57;99729.30;;;7.12;77.67
79370;BME280;68835;53.096;17.932;2023-04-25T05:02:43;99733.88;;;7.18;77.81
79370;BME280;68835;53.096;17.932;2023-04-25T05:05:30;99730.21;;;7.19;77.54
79370;BME280;68835;53.096;17.932;2023-04-25T05:08:36;99728.83;;;7.18;77.45
79370;BME280;68835;53.096;17.932;2023-04-25T05:11:24;99727.43;;;7.19;77.35
79370;BME280;68835;53.096;17.932;2023-04-25T05:14:14;99732.13;;;7.19;76.72
79370;BME280;68835;53.096;17.932;2023-04-25T05:16:42;99734.39;;;7.20;76.69
79370;BME280;68835;53.096;17.932;2023-04-25T05:19:32;99734.23;;;7.19;76.88
79370;BME280;68835;53.096;17.932;2023-04-25T05:22:22;99736.16;;;7.23;76.58
79370;BME280;68835;53.096;17.932;2023-04-25T05:25:08;99738.46;;;7.27;76.30
79370;BME280;68835;53.096;17.932;2023-04-25T05:27:59;99736.94;;;7.34;75.67
79370;BME280;68835;53.096;17.932;2023-04-25T05:30:42;99740.10;;;7.37;76.08
79370;BME280;68835;53.096;17.932;2023-04-25T05:33:22;99736.48;;;7.42;76.23
79370;BME280;68835;53.096;17.932;2023-04-25T05:35:50;99737.02;;;7.46;75.77
79370;BME280;68835;53.096;17.932;2023-04-25T05:38:18;99739.85;;;7.53;75.78
79370;BME280;68835;53.096;17.932;2023-04-25T05:41:04;99740.27;;;7.65;75.46
79370;BME280;68835;53.096;17.932;2023-04-25T05:43:42;99742.77;;;7.74;75.24
79370;BME280;68835;53.096;17.932;2023-04-25T05:46:40;99745.20;;;7.76;74.07
79370;BME280;68835;53.096;17.932;2023-04-25T05:49:16;99742.23;;;7.72;74.79
79370;BME280;68835;53.096;17.932;2023-04-25T05:52:01;99738.21;;;7.70;74.62
79370;BME280;68835;53.096;17.932;2023-04-25T05:54:48;99739.95;;;7.67;74.96
79370;BME280;68835;53.096;17.932;2023-04-25T05:57:26;99745.52;;;7.70;74.85
79370;BME280;68835;53.096;17.932;2023-04-25T05:59:55;99744.14;;;7.72;74.68
79370;BME280;68835;53.096;17.932;2023-04-25T06:02:25;99744.98;;;7.69;74.60
79370;BME280;68835;53.096;17.932;2023-04-25T06:04:53;99742.91;;;7.68;74.92
79370;BME280;68835;53.096;17.932;2023-04-25T06:07:25;99739.91;;;7.66;74.56
79370;BME280;68835;53.096;17.932;2023-04-25T06:09:53;99741.51;;;7.68;75.21
79370;BME280;68835;53.096;17.932;2023-04-25T06:12:20;99746.58;;;7.73;74.11
79370;BME280;68835;53.096;17.932;2023-04-25T06:14:49;99748.70;;;7.80;74.60
79370;BME280;68835;53.096;17.932;2023-04-25T06:17:16;99743.52;;;7.87;74.38
79370;BME280;68835;53.096;17.932;2023-04-25T06:19:43;99743.03;;;7.95;74.19
79370;BME280;68835;53.096;17.932;2023-04-25T06:22:10;99751.42;;;8.00;73.68
79370;BME280;68835;53.096;17.932;2023-04-25T06:24:39;99750.73;;;8.06;73.85
79370;BME280;68835;53.096;17.932;2023-04-25T06:27:07;99750.79;;;8.14;73.92
79370;BME280;68835;53.096;17.932;2023-04-25T06:29:34;99746.99;;;8.27;73.90
79370;BME280;68835;53.096;17.932;2023-04-25T06:32:02;99745.51;;;8.43;73.10
79370;BME280;68835;53.096;17.932;2023-04-25T06:34:30;99751.63;;;8.55;72.12
79370;BME280;68835;53.096;17.932;2023-04-25T06:36:57;99744.52;;;8.67;72.37
79370;BME280;68835;53.096;17.932;2023-04-25T06:39:24;99740.68;;;8.80;71.75
79370;BME280;68835;53.096;17.932;2023-04-25T06:41:52;99736.50;;;8.92;71.41
79370;BME280;68835;53.096;17.932;2023-04-25T06:44:46;99734.42;;;9.05;70.00
79370;BME280;68835;53.096;17.932;2023-04-25T06:47:14;99736.16;;;9.09;69.48
79370;BME280;68835;53.096;17.932;2023-04-25T06:49:42;99735.98;;;9.15;70.22
79370;BME280;68835;53.096;17.932;2023-04-25T06:52:10;99733.89;;;9.20;70.26
79370;BME280;68835;53.096;17.932;2023-04-25T06:54:37;99735.80;;;9.34;69.73
79370;BME280;68835;53.096;17.932;2023-04-25T06:57:16;99731.59;;;9.44;69.01
79370;BME280;68835;53.096;17.932;2023-04-25T06:59:49;99735.42;;;9.49;67.81
79370;BME280;68835;53.096;17.932;2023-04-25T07:02:19;99730.70;;;9.52;67.55
79370;BME280;68835;53.096;17.932;2023-04-25T07:04:49;99726.66;;;9.66;68.57
79370;BME280;68835;53.096;17.932;2023-04-25T07:07:16;99733.60;;;9.81;67.64
79370;BME280;68835;53.096;17.932;2023-04-25T07:09:52;99731.67;;;9.85;67.28
79370;BME280;68835;53.096;17.932;2023-04-25T07:12:19;99730.10;;;9.81;66.41
79370;BME280;68835;53.096;17.932;2023-04-25T07:14:47;99732.88;;;9.85;66.71
79370;BME280;68835;53.096;17.932;2023-04-25T07:17:14;99736.71;;;9.94;64.79
79370;BME280;68835;53.096;17.932;2023-04-25T07:19:42;99734.91;;;10.02;64.23
79370;BME280;68835;53.096;17.932;2023-04-25T07:22:10;99732.63;;;10.08;66.05
79370;BME280;68835;53.096;17.932;2023-04-25T07:24:40;99738.52;;;10.23;65.24
79370;BME280;68835;53.096;17.932;2023-04-25T07:27:11;99734.46;;;10.34;65.07
79370;BME280;68835;53.096;17.932;2023-04-25T07:29:56;99736.69;;;10.42;63.79
79370;BME280;68835;53.096;17.932;2023-04-25T07:32:25;99738.56;;;10.52;63.23
79370;BME280;68835;53.096;17.932;2023-04-25T07:34:52;99740.29;;;10.53;62.81
79370;BME280;68835;53.096;17.932;2023-04-25T07:37:19;99745.34;;;10.57;62.49
79370;BME280;68835;53.096;17.932;2023-04-25T07:40:02;99746.17;;;10.63;63.12
79370;BME280;68835;53.096;17.932;2023-04-25T07:42:31;99748.41;;;10.70;62.23
79370;BME280;68835;53.096;17.932;2023-04-25T07:45:00;99748.23;;;10.71;61.95
79370;BME280;68835;53.096;17.932;2023-04-25T07:47:28;99755.59;;;10.70;61.95
79370;BME280;68835;53.096;17.932;2023-04-25T07:49:56;99752.42;;;10.71;62.56
79370;BME280;68835;53.096;17.932;2023-04-25T07:52:25;99753.96;;;10.77;62.33
79370;BME280;68835;53.096;17.932;2023-04-25T07:54:58;99754.77;;;10.88;62.72
79370;BME280;68835;53.096;17.932;2023-04-25T07:57:32;99754.73;;;10.93;62.60
79370;BME280;68835;53.096;17.932;2023-04-25T08:00:00;99755.98;;;10.89;62.07
79370;BME280;68835;53.096;17.932;2023-04-25T08:02:27;99758.69;;;10.78;62.21
79370;BME280;68835;53.096;17.932;2023-04-25T08:04:55;99760.87;;;10.67;62.77
79370;BME280;68835;53.096;17.932;2023-04-25T08:07:23;99763.11;;;10.70;63.22
79370;BME280;68835;53.096;17.932;2023-04-25T08:09:53;99762.27;;;10.67;62.93
79370;BME280;68835;53.096;17.932;2023-04-25T08:12:27;99767.71;;;10.63;62.83
79370;BME280;68835;53.096;17.932;2023-04-25T08:14:56;99762.31;;;10.58;63.00
79370;BME280;68835;53.096;17.932;2023-04-25T08:17:24;99771.55;;;10.64;63.11
79370;BME280;68835;53.096;17.932;2023-04-25T08:19:52;99771.15;;;10.73;62.59
79370;BME280;68835;53.096;17.932;2023-04-25T08:22:30;99771.64;;;10.76;62.50
79370;BME280;68835;53.096;17.932;2023-04-25T08:25:15;99771.77;;;10.84;63.34
79370;BME280;68835;53.096;17.932;2023-04-25T08:27:43;99771.87;;;10.94;63.07
79370;BME280;68835;53.096;17.932;2023-04-25T08:30:12;99771.16;;;10.97;62.84
79370;BME280;68835;53.096;17.932;2023-04-25T08:32:40;99773.06;;;10.98;62.79
79370;BME280;68835;53.096;17.932;2023-04-25T08:35:26;99780.26;;;10.96;61.84
79370;BME280;68835;53.096;17.932;2023-04-25T08:37:54;99782.40;;;10.90;62.29
79370;BME280;68835;53.096;17.932;2023-04-25T08:40:22;99785.93;;;10.86;62.06
79370;BME280;68835;53.096;17.932;2023-04-25T08:43:24;99783.86;;;10.81;61.83
79370;BME280;68835;53.096;17.932;2023-04-25T08:45:52;99783.52;;;10.84;62.32
79370;BME280;68835;53.096;17.932;2023-04-25T08:48:32;99782.77;;;10.89;61.98
79370;BME280;68835;53.096;17.932;2023-04-25T08:51:02;99783.80;;;10.93;61.82
79370;BME280;68835;53.096;17.932;2023-04-25T08:53:33;99784.30;;;10.95;62.04
79370;BME280;68835;53.096;17.932;2023-04-25T08:56:05;99783.20;;;11.02;61.82
79370;BME280;68835;53.096;17.932;2023-04-25T08:58:37;99780.20;;;11.05;61.57
79370;BME280;68835;53.096;17.932;2023-04-25T09:01:05;99787.33;;;11.11;61.52
79370;BME280;68835;53.096;17.932;2023-04-25T09:03:41;99785.11;;;11.27;62.32
79370;BME280;68835;53.096;17.932;2023-04-25T09:06:10;99789.66;;;11.48;61.15
79370;BME280;68835;53.096;17.932;2023-04-25T09:08:38;99795.53;;;11.57;60.55
79370;BME280;68835;53.096;17.932;2023-04-25T09:11:07;99797.98;;;11.56;60.01
79370;BME280;68835;53.096;17.932;2023-04-25T09:13:34;99802.23;;;11.51;59.48
79370;BME280;68835;53.096;17.932;2023-04-25T09:16:24;99800.93;;;11.41;59.35
79370;BME280;68835;53.096;17.932;2023-04-25T09:19:25;99802.67;;;11.42;59.48
79370;BME280;68835;53.096;17.932;2023-04-25T09:21:59;99802.65;;;11.44;59.67
79370;BME280;68835;53.096;17.932;2023-04-25T09:24:37;99803.27;;;11.52;59.64
79370;BME280;68835;53.096;17.932;2023-04-25T09:27:07;99801.83;;;11.59;59.34
79370;BME280;68835;53.096;17.932;2023-04-25T09:29:37;99806.02;;;11.59;58.69
79370;BME280;68835;53.096;17.932;2023-04-25T09:32:12;99806.55;;;11.59;59.30
79370;BME280;68835;53.096;17.932;2023-04-25T09:34:43;99808.45;;;11.63;58.46
79370;BME280;68835;53.096;17.932;2023-04-25T09:37:17;99812.13;;;11.62;58.43
79370;BME280;68835;53.096;17.932;2023-04-25T09:40:21;99816.34;;;11.60;58.89
79370;BME280;68835;53.096;17.932;2023-04-25T09:43:09;99809.91;;;11.56;58.38
79370;BME280;68835;53.096;17.932;2023-04-25T09:45:43;99813.81;;;11.49;58.51
79370;BME280;68835;53.096;17.932;2023-04-25T09:48:22;99818.16;;;11.53;58.92
79370;BME280;68835;53.096;17.932;2023-04-25T09:51:06;99818.30;;;11.58;58.37
79370;BME280;68835;53.096;17.932;2023-04-25T09:53:39;99822.46;;;11.63;58.56
79370;BME280;68835;53.096;17.932;2023-04-25T09:56:15;99824.17;;;11.66;58.31
79370;BME280;68835;53.096;17.932;2023-04-25T09:58:43;99828.67;;;11.73;58.48
79370;BME280;68835;53.096;17.932;2023-04-25T10:01:10;99829.02;;;11.74;57.74
79370;BME280;68835;53.096;17.932;2023-04-25T10:03:46;99831.94;;;11.81;58.50
79370;BME280;68835;53.096;17.932;2023-04-25T10:06:34;99833.46;;;11.88;57.99
79370;BME280;68835;53.096;17.932;2023-04-25T10:09:02;99828.41;;;11.86;57.79
79370;BME280;68835;53.096;17.932;2023-04-25T10:11:30;99829.09;;;11.88;57.53
79370;BME280;68835;53.096;17.932;2023-04-25T10:13:59;99831.92;;;11.85;57.46
79370;BME280;68835;53.096;17.932;2023-04-25T10:16:28;99837.17;;;11.83;57.51
79370;BME280;68835;53.096;17.932;2023-04-25T10:18:55;99838.95;;;11.79;56.67
79370;BME280;68835;53.096;17.932;2023-04-25T10:21:24;99842.38;;;11.69;56.86
79370;BME280;68835;53.096;17.932;2023-04-25T10:23:53;99840.88;;;11.60;57.28
79370;BME280;68835;53.096;17.932;2023-04-25T10:26:21;99840.39;;;11.56;56.15
79370;BME280;68835;53.096;17.932;2023-04-25T10:29:02;99837.58;;;11.58;56.10
79370;BME280;68835;53.096;17.932;2023-04-25T10:31:30;99833.45;;;11.67;56.69
79370;BME280;68835;53.096;17.932;2023-04-25T10:33:59;99836.14;;;11.82;57.31
79370;BME280;68835;53.096;17.932;2023-04-25T10:36:31;99835.26;;;12.02;56.97
79370;BME280;68835;53.096;17.932;2023-04-25T10:39:04;99837.06;;;12.14;55.62
79370;BME280;68835;53.096;17.932;2023-04-25T10:41:56;99835.91;;;12.21;54.09
79370;BME280;68835;53.096;17.932;2023-04-25T10:44:30;99837.45;;;12.25;54.77
79370;BME280;68835;53.096;17.932;2023-04-25T10:46:59;99839.63;;;12.36;54.23
79370;BME280;68835;53.096;17.932;2023-04-25T10:49:38;99840.61;;;12.41;53.72
79370;BME280;68835;53.096;17.932;2023-04-25T10:54:57;99843.33;;;12.47;53.87
79370;BME280;68835;53.096;17.932;2023-04-25T10:57:45;99845.15;;;12.43;54.80
79370;BME280;68835;53.096;17.932;2023-04-25T11:00:19;99842.61;;;12.48;54.42
79370;BME280;68835;53.096;17.932;2023-04-25T11:02:51;99843.48;;;12.63;53.56
79370;BME280;68835;53.096;17.932;2023-04-25T11:05:33;99840.85;;;12.77;52.09
79370;BME280;68835;53.096;17.932;2023-04-25T11:08:00;99839.10;;;12.89;51.72
79370;BME280;68835;53.096;17.932;2023-04-25T11:10:29;99838.79;;;12.86;52.11
79370;BME280;68835;53.096;17.932;2023-04-25T11:12:58;99836.95;;;12.81;52.14
79370;BME280;68835;53.096;17.932;2023-04-25T11:15:27;99845.17;;;12.69;51.78
79370;BME280;68835;53.096;17.932;2023-04-25T11:17:55;99845.70;;;12.40;52.02
79370;BME280;68835;53.096;17.932;2023-04-25T11:20:25;99850.76;;;12.10;51.69
79370;BME280;68835;53.096;17.932;2023-04-25T11:22:57;99850.61;;;11.91;52.67
79370;BME280;68835;53.096;17.932;2023-04-25T11:25:26;99851.40;;;11.80;53.69
79370;BME280;68835;53.096;17.932;2023-04-25T11:27:57;99853.20;;;11.73;53.29
79370;BME280;68835;53.096;17.932;2023-04-25T11:30:26;99853.59;;;11.70;53.41
79370;BME280;68835;53.096;17.932;2023-04-25T11:32:57;99848.13;;;11.72;53.73
79370;BME280;68835;53.096;17.932;2023-04-25T11:35:25;99849.09;;;11.85;54.19
79370;BME280;68835;53.096;17.932;2023-04-25T11:37:52;99851.95;;;11.97;53.89
79370;BME280;68835;53.096;17.932;2023-04-25T11:40:19;99851.36;;;12.04;53.48
79370;BME280;68835;53.096;17.932;2023-04-25T11:42:47;99843.40;;;12.11;53.77
79370;BME280;68835;53.096;17.932;2023-04-25T11:45:14;99848.86;;;12.25;54.15
79370;BME280;68835;53.096;17.932;2023-04-25T11:47:41;99849.40;;;12.39;53.54
79370;BME280;68835;53.096;17.932;2023-04-25T11:50:09;99857.16;;;12.50;51.53
79370;BME280;68835;53.096;17.932;2023-04-25T11:55:09;99853.62;;;12.93;50.41
79370;BME280;68835;53.096;17.932;2023-04-25T11:57:40;99854.22;;;13.13;49.77
79370;BME280;68835;53.096;17.932;2023-04-25T12:00:12;99856.34;;;13.11;50.49
79370;BME280;68835;53.096;17.932;2023-04-25T12:02:41;99856.16;;;13.13;51.05
79370;BME280;68835;53.096;17.932;2023-04-25T12:05:10;99859.42;;;13.17;50.96
79370;BME280;68835;53.096;17.932;2023-04-25T12:07:38;99863.41;;;13.21;50.43
79370;BME280;68835;53.096;17.932;2023-04-25T12:10:07;99862.30;;;13.13;49.98
79370;BME280;68835;53.096;17.932;2023-04-25T12:12:36;99864.20;;;13.03;49.94
79370;BME280;68835;53.096;17.932;2023-04-25T12:15:11;99864.42;;;12.99;50.47
79370;BME280;68835;53.096;17.932;2023-04-25T12:17:49;99863.77;;;12.96;49.55
79370;BME280;68835;53.096;17.932;2023-04-25T12:20:19;99862.69;;;12.97;49.88
79370;BME280;68835;53.096;17.932;2023-04-25T12:22:48;99863.36;;;13.00;50.38
79370;BME280;68835;53.096;17.932;2023-04-25T12:25:40;99863.61;;;13.06;50.59
79370;BME280;68835;53.096;17.932;2023-04-25T12:33:30;99857.95;;;13.21;50.36
79370;BME280;68835;53.096;17.932;2023-04-25T12:35:58;99864.98;;;13.24;50.56
79370;BME280;68835;53.096;17.932;2023-04-25T12:38:29;99861.30;;;13.20;50.55
79370;BME280;68835;53.096;17.932;2023-04-25T12:40:58;99864.40;;;13.28;51.00
79370;BME280;68835;53.096;17.932;2023-04-25T12:43:26;99865.55;;;13.32;50.87
79370;BME280;68835;53.096;17.932;2023-04-25T12:45:54;99864.04;;;13.39;50.93
79370;BME280;68835;53.096;17.932;2023-04-25T12:48:22;99856.67;;;13.61;50.68
79370;BME280;68835;53.096;17.932;2023-04-25T12:50:50;99860.39;;;13.89;50.03
79370;BME280;68835;53.096;17.932;2023-04-25T12:53:20;99858.09;;;14.28;49.32
79370;BME280;68835;53.096;17.932;2023-04-25T12:55:47;99864.02;;;14.51;47.19
79370;BME280;68835;53.096;17.932;2023-04-25T12:58:16;99859.27;;;14.59;47.80
79370;BME280;68835;53.096;17.932;2023-04-25T13:00:45;99851.21;;;14.65;47.02
79370;BME280;68835;53.096;17.932;2023-04-25T13:03:12;99852.39;;;14.50;47.45
79370;BME280;68835;53.096;17.932;2023-04-25T13:05:40;99847.46;;;14.13;47.87
79370;BME280;68835;53.096;17.932;2023-04-25T13:08:08;99847.57;;;13.79;47.95
79370;BME280;68835;53.096;17.932;2023-04-25T13:10:36;99847.33;;;13.51;48.81
79370;BME280;68835;53.096;17.932;2023-04-25T13:13:05;99850.02;;;13.25;49.74
79370;BME280;68835;53.096;17.932;2023-04-25T13:15:33;99852.17;;;13.09;50.25
79370;BME280;68835;53.096;17.932;2023-04-25T13:18:00;99850.45;;;12.94;50.61
79370;BME280;68835;53.096;17.932;2023-04-25T13:20:30;99854.39;;;12.75;51.69
79370;BME280;68835;53.096;17.932;2023-04-25T13:22:57;99858.30;;;12.57;51.63
79370;BME280;68835;53.096;17.932;2023-04-25T13:25:24;99860.92;;;12.43;52.19
79370;BME280;68835;53.096;17.932;2023-04-25T13:27:51;99862.99;;;12.31;52.78
79370;BME280;68835;53.096;17.932;2023-04-25T13:30:21;99860.48;;;12.20;52.89